sensor_id;sensor_type;location;lat;lon;timestamp;P1;durP1;ratioP1;P2;durP2;ratioP2
5349;SDS011;2697;42.144;24.794;2023-06-14T00:02:10;11.57;;;9.27;;
5349;SDS011;2697;42.144;24.794;2023-06-14T00:04:36;15.20;;;9.77;;
5349;SDS011;2697;42.144;24.794;2023-06-14T00:07:03;12.77;;;10.87;;
5349;SDS011;2697;42.144;24.794;2023-06-14T00:09:29;18.20;;;9.63;;
5349;SDS011;2697;42.144;24.794;2023-06-14T00:11:55;9.80;;;8.77;;
5349;SDS011;2697;42.144;24.794;2023-06-14T00:14:20;16.80;;;10.10;;
5349;SDS011;2697;42.144;24.794;2023-06-14T00:16:46;24.03;;;10.30;;
5349;SDS011;2697;42.144;24.794;2023-06-14T00:19:11;17.93;;;10.80;;
5349;SDS011;2697;42.144;24.794;2023-06-14T00:21:37;16.93;;;12.40;;
5349;SDS011;2697;42.144;24.794;2023-06-14T00:24:03;12.40;;;9.40;;
5349;SDS011;2697;42.144;24.794;2023-06-14T00:26:29;14.93;;;9.90;;
5349;SDS011;2697;42.144;24.794;2023-06-14T00:28:54;12.17;;;9.97;;
5349;SDS011;2697;42.144;24.794;2023-06-14T00:31:21;16.37;;;11.40;;
5349;SDS011;2697;42.144;24.794;2023-06-14T00:33:46;12.50;;;9.73;;
5349;SDS011;2697;42.144;24.794;2023-06-14T00:36:12;17.33;;;10.23;;
5349;SDS011;2697;42.144;24.794;2023-06-14T00:38:37;12.33;;;9.40;;
5349;SDS011;2697;42.144;24.794;2023-06-14T00:41:03;13.00;;;8.90;;
5349;SDS011;2697;42.144;24.794;2023-06-14T00:43:28;12.27;;;9.27;;
5349;SDS011;2697;42.144;24.794;2023-06-14T00:45:54;15.90;;;11.07;;
5349;SDS011;2697;42.144;24.794;2023-06-14T00:48:19;15.53;;;10.30;;
5349;SDS011;2697;42.144;24.794;2023-06-14T00:50:45;12.30;;;9.27;;
5349;SDS011;2697;42.144;24.794;2023-06-14T00:53:11;15.47;;;9.57;;
5349;SDS011;2697;42.144;24.794;2023-06-14T00:55:37;17.87;;;10.30;;
5349;SDS011;2697;42.144;24.794;2023-06-14T00:58:03;11.60;;;8.90;;
5349;SDS011;2697;42.144;24.794;2023-06-14T01:00:28;17.67;;;9.97;;
5349;SDS011;2697;42.144;24.794;2023-06-14T01:02:54;12.70;;;9.30;;
5349;SDS011;2697;42.144;24.794;2023-06-14T01:05:20;14.23;;;8.97;;
5349;SDS011;2697;42.144;24.794;2023-06-14T01:15:43;17.43;;;8.97;;
5349;SDS011;2697;42.144;24.794;2023-06-14T01:18:09;15.03;;;9.40;;
5349;SDS011;2697;42.144;24.794;2023-06-14T01:20:42;16.37;;;10.03;;
5349;SDS011;2697;42.144;24.794;2023-06-14T01:23:10;11.07;;;9.53;;
5349;SDS011;2697;42.144;24.794;2023-06-14T01:25:37;14.90;;;8.60;;
5349;SDS011;2697;42.144;24.794;2023-06-14T01:28:04;13.60;;;8.37;;
5349;SDS011;2697;42.144;24.794;2023-06-14T01:30:38;19.30;;;10.27;;
5349;SDS011;2697;42.144;24.794;2023-06-14T01:33:11;11.50;;;9.50;;
5349;SDS011;2697;42.144;24.794;2023-06-14T01:35:45;11.60;;;9.87;;
5349;SDS011;2697;42.144;24.794;2023-06-14T01:38:12;14.07;;;9.80;;
5349;SDS011;2697;42.144;24.794;2023-06-14T01:40:39;12.37;;;8.50;;
5349;SDS011;2697;42.144;24.794;2023-06-14T01:43:05;16.63;;;10.20;;
5349;SDS011;2697;42.144;24.794;2023-06-14T01:45:32;13.30;;;10.10;;
5349;SDS011;2697;42.144;24.794;2023-06-14T01:47:59;13.23;;;10.00;;
5349;SDS011;2697;42.144;24.794;2023-06-14T01:50:29;13.53;;;9.67;;
5349;SDS011;2697;42.144;24.794;2023-06-14T01:52:55;13.97;;;10.20;;
5349;SDS011;2697;42.144;24.794;2023-06-14T01:55:21;15.47;;;10.60;;
5349;SDS011;2697;42.144;24.794;2023-06-14T01:57:47;13.87;;;10.50;;
5349;SDS011;2697;42.144;24.794;2023-06-14T02:00:13;21.10;;;12.00;;
5349;SDS011;2697;42.144;24.794;2023-06-14T02:02:39;21.07;;;11.47;;
5349;SDS011;2697;42.144;24.794;2023-06-14T02:05:05;15.20;;;9.70;;
5349;SDS011;2697;42.144;24.794;2023-06-14T02:07:31;20.80;;;10.40;;
5349;SDS011;2697;42.144;24.794;2023-06-14T02:09:56;13.40;;;9.70;;
5349;SDS011;2697;42.144;24.794;2023-06-14T02:12:22;15.00;;;9.90;;
5349;SDS011;2697;42.144;24.794;2023-06-14T02:14:47;10.20;;;8.90;;
5349;SDS011;2697;42.144;24.794;2023-06-14T02:17:13;22.20;;;9.80;;
5349;SDS011;2697;42.144;24.794;2023-06-14T02:19:39;9.70;;;7.97;;
5349;SDS011;2697;42.144;24.794;2023-06-14T02:22:05;13.20;;;8.90;;
5349;SDS011;2697;42.144;24.794;2023-06-14T02:24:31;20.47;;;9.57;;
5349;SDS011;2697;42.144;24.794;2023-06-14T02:26:57;12.73;;;7.77;;
5349;SDS011;2697;42.144;24.794;2023-06-14T02:29:22;15.67;;;9.10;;
5349;SDS011;2697;42.144;24.794;2023-06-14T02:31:47;16.17;;;8.60;;
5349;SDS011;2697;42.144;24.794;2023-06-14T02:34:13;13.87;;;8.37;;
5349;SDS011;2697;42.144;24.794;2023-06-14T02:36:41;22.47;;;9.53;;
5349;SDS011;2697;42.144;24.794;2023-06-14T02:39:07;12.37;;;9.00;;
5349;SDS011;2697;42.144;24.794;2023-06-14T02:41:34;17.13;;;8.97;;
5349;SDS011;2697;42.144;24.794;2023-06-14T02:44:00;16.53;;;9.80;;
5349;SDS011;2697;42.144;24.794;2023-06-14T02:46:25;12.73;;;8.27;;
5349;SDS011;2697;42.144;24.794;2023-06-14T02:48:51;17.57;;;7.97;;
5349;SDS011;2697;42.144;24.794;2023-06-14T02:51:17;15.40;;;8.40;;
5349;SDS011;2697;42.144;24.794;2023-06-14T02:53:43;19.97;;;8.27;;
5349;SDS011;2697;42.144;24.794;2023-06-14T02:56:08;22.97;;;8.00;;
5349;SDS011;2697;42.144;24.794;2023-06-14T02:58:36;13.60;;;9.33;;
5349;SDS011;2697;42.144;24.794;2023-06-14T03:01:01;18.10;;;10.17;;
5349;SDS011;2697;42.144;24.794;2023-06-14T03:03:29;10.70;;;8.47;;
5349;SDS011;2697;42.144;24.794;2023-06-14T03:05:54;20.70;;;9.37;;
5349;SDS011;2697;42.144;24.794;2023-06-14T03:08:21;9.47;;;7.60;;
5349;SDS011;2697;42.144;24.794;2023-06-14T03:10:51;11.70;;;7.87;;
5349;SDS011;2697;42.144;24.794;2023-06-14T03:13:17;17.50;;;10.40;;
5349;SDS011;2697;42.144;24.794;2023-06-14T03:15:42;18.00;;;8.03;;
5349;SDS011;2697;42.144;24.794;2023-06-14T03:18:10;20.90;;;10.47;;
5349;SDS011;2697;42.144;24.794;2023-06-14T03:20:37;21.30;;;9.53;;
5349;SDS011;2697;42.144;24.794;2023-06-14T03:23:02;17.43;;;8.87;;
5349;SDS011;2697;42.144;24.794;2023-06-14T03:25:29;13.53;;;7.70;;
5349;SDS011;2697;42.144;24.794;2023-06-14T03:27:55;11.97;;;7.30;;
5349;SDS011;2697;42.144;24.794;2023-06-14T03:30:21;18.50;;;7.17;;
5349;SDS011;2697;42.144;24.794;2023-06-14T03:32:47;12.57;;;6.33;;
5349;SDS011;2697;42.144;24.794;2023-06-14T03:35:12;13.93;;;6.27;;
5349;SDS011;2697;42.144;24.794;2023-06-14T03:37:42;13.67;;;7.40;;
5349;SDS011;2697;42.144;24.794;2023-06-14T03:40:11;15.57;;;7.17;;
5349;SDS011;2697;42.144;24.794;2023-06-14T03:42:38;16.33;;;6.87;;
5349;SDS011;2697;42.144;24.794;2023-06-14T03:45:03;14.07;;;7.07;;
5349;SDS011;2697;42.144;24.794;2023-06-14T03:47:29;11.00;;;6.53;;
5349;SDS011;2697;42.144;24.794;2023-06-14T03:49:55;19.73;;;7.93;;
5349;SDS011;2697;42.144;24.794;2023-06-14T03:52:21;20.20;;;7.47;;
5349;SDS011;2697;42.144;24.794;2023-06-14T03:54:47;20.77;;;7.00;;
5349;SDS011;2697;42.144;24.794;2023-06-14T03:57:12;36.47;;;6.90;;
5349;SDS011;2697;42.144;24.794;2023-06-14T03:59:38;12.57;;;8.30;;
5349;SDS011;2697;42.144;24.794;2023-06-14T04:02:03;12.97;;;6.60;;
5349;SDS011;2697;42.144;24.794;2023-06-14T04:04:29;19.53;;;7.60;;
5349;SDS011;2697;42.144;24.794;2023-06-14T04:06:57;7.37;;;6.10;;
5349;SDS011;2697;42.144;24.794;2023-06-14T04:09:25;18.10;;;6.07;;
5349;SDS011;2697;42.144;24.794;2023-06-14T04:11:51;8.80;;;6.10;;
5349;SDS011;2697;42.144;24.794;2023-06-14T04:14:18;9.03;;;5.10;;
5349;SDS011;2697;42.144;24.794;2023-06-14T04:16:47;10.37;;;5.57;;
5349;SDS011;2697;42.144;24.794;2023-06-14T04:19:13;7.97;;;5.33;;
5349;SDS011;2697;42.144;24.794;2023-06-14T04:21:38;8.93;;;4.60;;
5349;SDS011;2697;42.144;24.794;2023-06-14T04:24:04;8.60;;;5.97;;
5349;SDS011;2697;42.144;24.794;2023-06-14T04:26:29;6.30;;;4.70;;
5349;SDS011;2697;42.144;24.794;2023-06-14T04:28:58;8.47;;;5.97;;
5349;SDS011;2697;42.144;24.794;2023-06-14T04:31:26;15.60;;;6.10;;
5349;SDS011;2697;42.144;24.794;2023-06-14T04:33:58;12.13;;;5.77;;
5349;SDS011;2697;42.144;24.794;2023-06-14T04:36:24;19.00;;;5.67;;
5349;SDS011;2697;42.144;24.794;2023-06-14T04:38:51;6.87;;;4.90;;
5349;SDS011;2697;42.144;24.794;2023-06-14T04:41:20;6.37;;;5.57;;
5349;SDS011;2697;42.144;24.794;2023-06-14T04:43:47;17.63;;;5.13;;
5349;SDS011;2697;42.144;24.794;2023-06-14T04:46:14;19.10;;;5.13;;
5349;SDS011;2697;42.144;24.794;2023-06-14T04:48:40;12.13;;;4.73;;
5349;SDS011;2697;42.144;24.794;2023-06-14T04:51:08;11.10;;;5.57;;
5349;SDS011;2697;42.144;24.794;2023-06-14T04:53:33;10.47;;;5.03;;
5349;SDS011;2697;42.144;24.794;2023-06-14T04:55:59;7.73;;;4.60;;
5349;SDS011;2697;42.144;24.794;2023-06-14T04:58:26;9.93;;;7.90;;
5349;SDS011;2697;42.144;24.794;2023-06-14T05:00:52;11.13;;;6.43;;
5349;SDS011;2697;42.144;24.794;2023-06-14T05:03:18;14.83;;;6.93;;
5349;SDS011;2697;42.144;24.794;2023-06-14T05:05:46;12.10;;;6.50;;
5349;SDS011;2697;42.144;24.794;2023-06-14T05:08:11;17.80;;;6.40;;
5349;SDS011;2697;42.144;24.794;2023-06-14T05:10:37;18.50;;;6.37;;
5349;SDS011;2697;42.144;24.794;2023-06-14T05:13:02;18.63;;;6.93;;
5349;SDS011;2697;42.144;24.794;2023-06-14T05:15:28;12.63;;;7.53;;
5349;SDS011;2697;42.144;24.794;2023-06-14T05:17:54;20.70;;;7.53;;
5349;SDS011;2697;42.144;24.794;2023-06-14T05:20:23;9.40;;;7.37;;
5349;SDS011;2697;42.144;24.794;2023-06-14T05:22:50;10.90;;;7.20;;
5349;SDS011;2697;42.144;24.794;2023-06-14T05:25:22;16.23;;;7.87;;
5349;SDS011;2697;42.144;24.794;2023-06-14T05:27:48;14.70;;;6.90;;
5349;SDS011;2697;42.144;24.794;2023-06-14T05:30:14;10.77;;;7.50;;
5349;SDS011;2697;42.144;24.794;2023-06-14T05:32:40;11.93;;;7.70;;
5349;SDS011;2697;42.144;24.794;2023-06-14T05:35:05;15.93;;;7.13;;
5349;SDS011;2697;42.144;24.794;2023-06-14T05:37:31;9.93;;;7.27;;
5349;SDS011;2697;42.144;24.794;2023-06-14T05:39:57;17.17;;;7.87;;
5349;SDS011;2697;42.144;24.794;2023-06-14T05:42:23;11.63;;;6.67;;
5349;SDS011;2697;42.144;24.794;2023-06-14T05:44:48;16.00;;;7.37;;
5349;SDS011;2697;42.144;24.794;2023-06-14T05:47:13;13.47;;;7.70;;
5349;SDS011;2697;42.144;24.794;2023-06-14T05:49:39;19.03;;;7.33;;
5349;SDS011;2697;42.144;24.794;2023-06-14T05:52:04;14.03;;;7.77;;
5349;SDS011;2697;42.144;24.794;2023-06-14T05:54:30;15.13;;;6.73;;
5349;SDS011;2697;42.144;24.794;2023-06-14T05:56:56;12.17;;;7.43;;
5349;SDS011;2697;42.144;24.794;2023-06-14T05:59:26;14.13;;;8.10;;
5349;SDS011;2697;42.144;24.794;2023-06-14T06:01:52;26.23;;;8.13;;
5349;SDS011;2697;42.144;24.794;2023-06-14T06:04:17;21.00;;;7.43;;
5349;SDS011;2697;42.144;24.794;2023-06-14T06:06:42;14.30;;;9.17;;
5349;SDS011;2697;42.144;24.794;2023-06-14T06:09:08;13.43;;;8.20;;
5349;SDS011;2697;42.144;24.794;2023-06-14T06:11:33;13.03;;;8.17;;
5349;SDS011;2697;42.144;24.794;2023-06-14T06:13:58;20.57;;;9.50;;
5349;SDS011;2697;42.144;24.794;2023-06-14T06:16:24;42.30;;;9.73;;
5349;SDS011;2697;42.144;24.794;2023-06-14T06:18:49;19.80;;;9.20;;
5349;SDS011;2697;42.144;24.794;2023-06-14T06:21:14;17.93;;;9.10;;
5349;SDS011;2697;42.144;24.794;2023-06-14T06:23:40;19.10;;;9.67;;
5349;SDS011;2697;42.144;24.794;2023-06-14T06:26:06;20.17;;;8.50;;
5349;SDS011;2697;42.144;24.794;2023-06-14T06:28:31;11.30;;;8.20;;
5349;SDS011;2697;42.144;24.794;2023-06-14T06:30:56;13.30;;;9.40;;
5349;SDS011;2697;42.144;24.794;2023-06-14T06:33:22;22.33;;;10.40;;
5349;SDS011;2697;42.144;24.794;2023-06-14T06:35:47;16.77;;;10.53;;
5349;SDS011;2697;42.144;24.794;2023-06-14T06:38:13;18.43;;;9.23;;
5349;SDS011;2697;42.144;24.794;2023-06-14T06:40:38;15.53;;;10.17;;
5349;SDS011;2697;42.144;24.794;2023-06-14T06:43:04;24.63;;;10.57;;
5349;SDS011;2697;42.144;24.794;2023-06-14T06:45:29;14.30;;;9.97;;
5349;SDS011;2697;42.144;24.794;2023-06-14T06:47:55;12.10;;;8.70;;
5349;SDS011;2697;42.144;24.794;2023-06-14T06:50:21;14.90;;;9.70;;
5349;SDS011;2697;42.144;24.794;2023-06-14T06:52:48;13.90;;;10.70;;
5349;SDS011;2697;42.144;24.794;2023-06-14T06:55:14;18.03;;;11.87;;
5349;SDS011;2697;42.144;24.794;2023-06-14T06:57:39;25.67;;;11.37;;
5349;SDS011;2697;42.144;24.794;2023-06-14T07:00:05;27.00;;;12.33;;
5349;SDS011;2697;42.144;24.794;2023-06-14T07:02:34;28.07;;;11.40;;
5349;SDS011;2697;42.144;24.794;2023-06-14T07:04:59;21.00;;;10.73;;
5349;SDS011;2697;42.144;24.794;2023-06-14T07:07:25;17.37;;;10.37;;
5349;SDS011;2697;42.144;24.794;2023-06-14T07:09:50;16.90;;;10.00;;
5349;SDS011;2697;42.144;24.794;2023-06-14T07:12:16;13.00;;;10.00;;
5349;SDS011;2697;42.144;24.794;2023-06-14T07:14:41;19.23;;;10.03;;
5349;SDS011;2697;42.144;24.794;2023-06-14T07:17:06;19.90;;;9.97;;
5349;SDS011;2697;42.144;24.794;2023-06-14T07:19:32;15.53;;;9.10;;
5349;SDS011;2697;42.144;24.794;2023-06-14T07:21:58;16.53;;;10.50;;
5349;SDS011;2697;42.144;24.794;2023-06-14T07:24:23;13.80;;;9.73;;
5349;SDS011;2697;42.144;24.794;2023-06-14T07:26:49;17.37;;;9.23;;
5349;SDS011;2697;42.144;24.794;2023-06-14T07:29:14;11.80;;;8.73;;
5349;SDS011;2697;42.144;24.794;2023-06-14T07:31:41;13.50;;;8.70;;
5349;SDS011;2697;42.144;24.794;2023-06-14T07:34:06;19.50;;;10.43;;
5349;SDS011;2697;42.144;24.794;2023-06-14T07:36:32;18.33;;;9.87;;
5349;SDS011;2697;42.144;24.794;2023-06-14T07:38:57;17.10;;;10.27;;
5349;SDS011;2697;42.144;24.794;2023-06-14T07:41:23;14.43;;;9.63;;
5349;SDS011;2697;42.144;24.794;2023-06-14T07:43:48;18.47;;;10.20;;
5349;SDS011;2697;42.144;24.794;2023-06-14T07:46:14;12.57;;;8.83;;
5349;SDS011;2697;42.144;24.794;2023-06-14T07:48:39;17.43;;;8.00;;
5349;SDS011;2697;42.144;24.794;2023-06-14T07:51:05;12.13;;;6.93;;
5349;SDS011;2697;42.144;24.794;2023-06-14T07:53:30;15.30;;;9.07;;
5349;SDS011;2697;42.144;24.794;2023-06-14T07:55:56;21.30;;;7.77;;
5349;SDS011;2697;42.144;24.794;2023-06-14T07:58:22;11.17;;;8.90;;
5349;SDS011;2697;42.144;24.794;2023-06-14T08:00:47;11.77;;;6.07;;
5349;SDS011;2697;42.144;24.794;2023-06-14T08:03:12;7.57;;;6.53;;
5349;SDS011;2697;42.144;24.794;2023-06-14T08:05:38;10.93;;;7.00;;
5349;SDS011;2697;42.144;24.794;2023-06-14T08:08:03;17.63;;;6.85;;
5349;SDS011;2697;42.144;24.794;2023-06-14T08:10:29;11.55;;;6.72;;
5349;SDS011;2697;42.144;24.794;2023-06-14T08:12:54;6.90;;;6.27;;
5349;SDS011;2697;42.144;24.794;2023-06-14T08:15:19;8.20;;;7.13;;
5349;SDS011;2697;42.144;24.794;2023-06-14T08:17:45;16.20;;;6.78;;
5349;SDS011;2697;42.144;24.794;2023-06-14T08:20:11;13.38;;;7.32;;
5349;SDS011;2697;42.144;24.794;2023-06-14T08:22:38;20.80;;;7.40;;
5349;SDS011;2697;42.144;24.794;2023-06-14T08:25:07;11.43;;;7.00;;
5349;SDS011;2697;42.144;24.794;2023-06-14T08:27:33;10.23;;;7.18;;
5349;SDS011;2697;42.144;24.794;2023-06-14T08:29:59;32.05;;;8.95;;
5349;SDS011;2697;42.144;24.794;2023-06-14T08:32:25;10.77;;;7.07;;
5349;SDS011;2697;42.144;24.794;2023-06-14T08:34:50;8.43;;;7.07;;
5349;SDS011;2697;42.144;24.794;2023-06-14T08:37:16;14.03;;;7.13;;
5349;SDS011;2697;42.144;24.794;2023-06-14T08:39:42;7.60;;;6.80;;
5349;SDS011;2697;42.144;24.794;2023-06-14T08:42:09;11.13;;;8.30;;
5349;SDS011;2697;42.144;24.794;2023-06-14T08:44:35;7.47;;;6.47;;
5349;SDS011;2697;42.144;24.794;2023-06-14T08:47:01;13.23;;;6.83;;
5349;SDS011;2697;42.144;24.794;2023-06-14T08:49:28;9.53;;;7.70;;
5349;SDS011;2697;42.144;24.794;2023-06-14T08:51:58;12.40;;;7.20;;
5349;SDS011;2697;42.144;24.794;2023-06-14T08:54:29;11.97;;;7.00;;
5349;SDS011;2697;42.144;24.794;2023-06-14T08:56:56;10.90;;;6.73;;
5349;SDS011;2697;42.144;24.794;2023-06-14T08:59:31;8.63;;;7.13;;
5349;SDS011;2697;42.144;24.794;2023-06-14T09:02:01;9.13;;;6.60;;
5349;SDS011;2697;42.144;24.794;2023-06-14T09:04:28;11.00;;;6.07;;
5349;SDS011;2697;42.144;24.794;2023-06-14T09:06:54;11.10;;;6.68;;
5349;SDS011;2697;42.144;24.794;2023-06-14T09:09:20;11.40;;;7.07;;
5349;SDS011;2697;42.144;24.794;2023-06-14T09:11:48;8.45;;;6.90;;
5349;SDS011;2697;42.144;24.794;2023-06-14T09:14:15;8.63;;;6.47;;
5349;SDS011;2697;42.144;24.794;2023-06-14T09:16:41;19.73;;;7.35;;
5349;SDS011;2697;42.144;24.794;2023-06-14T09:19:06;10.32;;;7.35;;
5349;SDS011;2697;42.144;24.794;2023-06-14T09:21:33;14.68;;;8.05;;
5349;SDS011;2697;42.144;24.794;2023-06-14T09:23:59;12.73;;;6.68;;
5349;SDS011;2697;42.144;24.794;2023-06-14T09:26:25;12.15;;;7.82;;
5349;SDS011;2697;42.144;24.794;2023-06-14T09:28:52;8.55;;;7.63;;
5349;SDS011;2697;42.144;24.794;2023-06-14T09:31:18;10.43;;;7.35;;
5349;SDS011;2697;42.144;24.794;2023-06-14T09:33:45;9.93;;;7.63;;
5349;SDS011;2697;42.144;24.794;2023-06-14T09:36:16;9.55;;;6.25;;
5349;SDS011;2697;42.144;24.794;2023-06-14T09:38:42;9.98;;;7.28;;
5349;SDS011;2697;42.144;24.794;2023-06-14T09:41:17;11.15;;;7.35;;
5349;SDS011;2697;42.144;24.794;2023-06-14T09:43:42;10.38;;;7.78;;
5349;SDS011;2697;42.144;24.794;2023-06-14T09:46:10;10.45;;;7.50;;
5349;SDS011;2697;42.144;24.794;2023-06-14T09:48:36;13.52;;;7.28;;
5349;SDS011;2697;42.144;24.794;2023-06-14T09:51:01;12.23;;;7.18;;
5349;SDS011;2697;42.144;24.794;2023-06-14T09:53:27;7.97;;;7.10;;
5349;SDS011;2697;42.144;24.794;2023-06-14T09:55:55;7.40;;;6.38;;
5349;SDS011;2697;42.144;24.794;2023-06-14T09:58:23;8.68;;;7.85;;
5349;SDS011;2697;42.144;24.794;2023-06-14T10:00:52;9.20;;;6.95;;
5349;SDS011;2697;42.144;24.794;2023-06-14T10:03:28;11.50;;;7.18;;
5349;SDS011;2697;42.144;24.794;2023-06-14T10:05:55;14.30;;;6.68;;
5349;SDS011;2697;42.144;24.794;2023-06-14T10:08:27;52.28;;;8.82;;
5349;SDS011;2697;42.144;24.794;2023-06-14T10:10:55;20.02;;;8.20;;
5349;SDS011;2697;42.144;24.794;2023-06-14T10:13:21;10.27;;;7.68;;
5349;SDS011;2697;42.144;24.794;2023-06-14T10:18:31;11.43;;;7.40;;
5349;SDS011;2697;42.144;24.794;2023-06-14T10:23:32;24.48;;;7.68;;
5349;SDS011;2697;42.144;24.794;2023-06-14T10:26:02;13.00;;;7.70;;
5349;SDS011;2697;42.144;24.794;2023-06-14T10:28:28;15.98;;;6.80;;
5349;SDS011;2697;42.144;24.794;2023-06-14T10:33:50;8.38;;;6.50;;
5349;SDS011;2697;42.144;24.794;2023-06-14T10:38:51;12.38;;;8.05;;
5349;SDS011;2697;42.144;24.794;2023-06-14T10:41:22;16.13;;;8.35;;
5349;SDS011;2697;42.144;24.794;2023-06-14T10:43:48;10.20;;;8.63;;
5349;SDS011;2697;42.144;24.794;2023-06-14T10:48:45;22.35;;;8.13;;
5349;SDS011;2697;42.144;24.794;2023-06-14T10:53:46;24.65;;;7.85;;
5349;SDS011;2697;42.144;24.794;2023-06-14T10:56:29;12.40;;;8.45;;
5349;SDS011;2697;42.144;24.794;2023-06-14T10:58:58;25.70;;;7.07;;
5349;SDS011;2697;42.144;24.794;2023-06-14T11:01:36;7.63;;;6.70;;
5349;SDS011;2697;42.144;24.794;2023-06-14T11:04:10;10.13;;;7.88;;
5349;SDS011;2697;42.144;24.794;2023-06-14T11:09:19;7.90;;;6.63;;
5349;SDS011;2697;42.144;24.794;2023-06-14T11:11:55;19.63;;;9.30;;
5349;SDS011;2697;42.144;24.794;2023-06-14T11:14:21;25.08;;;9.32;;
5349;SDS011;2697;42.144;24.794;2023-06-14T11:16:48;8.50;;;7.70;;
5349;SDS011;2697;42.144;24.794;2023-06-14T11:19:14;23.65;;;9.10;;
5349;SDS011;2697;42.144;24.794;2023-06-14T11:21:42;17.40;;;9.25;;
5349;SDS011;2697;42.144;24.794;2023-06-14T11:24:11;9.70;;;7.45;;
5349;SDS011;2697;42.144;24.794;2023-06-14T11:26:38;12.90;;;8.80;;
5349;SDS011;2697;42.144;24.794;2023-06-14T11:29:03;9.43;;;8.48;;
5349;SDS011;2697;42.144;24.794;2023-06-14T11:31:29;16.65;;;9.55;;
5349;SDS011;2697;42.144;24.794;2023-06-14T11:33:59;10.55;;;9.45;;
5349;SDS011;2697;42.144;24.794;2023-06-14T11:36:29;15.23;;;8.73;;
5349;SDS011;2697;42.144;24.794;2023-06-14T11:39:02;15.35;;;9.00;;
5349;SDS011;2697;42.144;24.794;2023-06-14T11:41:42;12.37;;;9.07;;
5349;SDS011;2697;42.144;24.794;2023-06-14T11:44:08;17.17;;;9.40;;
5349;SDS011;2697;42.144;24.794;2023-06-14T11:46:35;13.10;;;10.33;;
5349;SDS011;2697;42.144;24.794;2023-06-14T11:49:01;15.27;;;10.77;;
5349;SDS011;2697;42.144;24.794;2023-06-14T11:51:28;16.00;;;10.50;;
5349;SDS011;2697;42.144;24.794;2023-06-14T11:53:55;18.00;;;9.20;;
5349;SDS011;2697;42.144;24.794;2023-06-14T11:56:21;18.07;;;10.30;;
5349;SDS011;2697;42.144;24.794;2023-06-14T11:58:46;13.77;;;10.23;;
5349;SDS011;2697;42.144;24.794;2023-06-14T12:01:18;11.77;;;10.57;;
5349;SDS011;2697;42.144;24.794;2023-06-14T12:03:47;21.33;;;9.80;;
5349;SDS011;2697;42.144;24.794;2023-06-14T12:06:13;14.07;;;9.93;;
5349;SDS011;2697;42.144;24.794;2023-06-14T12:08:39;16.60;;;10.83;;
5349;SDS011;2697;42.144;24.794;2023-06-14T12:11:13;11.77;;;9.47;;
5349;SDS011;2697;42.144;24.794;2023-06-14T12:13:43;12.87;;;10.20;;
5349;SDS011;2697;42.144;24.794;2023-06-14T12:16:09;15.10;;;11.63;;
5349;SDS011;2697;42.144;24.794;2023-06-14T12:18:35;14.20;;;11.43;;
5349;SDS011;2697;42.144;24.794;2023-06-14T12:21:05;15.07;;;10.70;;
5349;SDS011;2697;42.144;24.794;2023-06-14T12:23:44;16.97;;;11.10;;
5349;SDS011;2697;42.144;24.794;2023-06-14T12:26:18;17.70;;;9.93;;
5349;SDS011;2697;42.144;24.794;2023-06-14T12:28:45;11.13;;;9.97;;
5349;SDS011;2697;42.144;24.794;2023-06-14T12:31:12;13.15;;;10.25;;
5349;SDS011;2697;42.144;24.794;2023-06-14T12:33:41;20.02;;;11.20;;
5349;SDS011;2697;42.144;24.794;2023-06-14T12:36:07;12.02;;;10.73;;
5349;SDS011;2697;42.144;24.794;2023-06-14T12:38:34;26.65;;;13.00;;
5349;SDS011;2697;42.144;24.794;2023-06-14T12:41:00;21.25;;;10.70;;
5349;SDS011;2697;42.144;24.794;2023-06-14T12:43:25;14.63;;;10.88;;
5349;SDS011;2697;42.144;24.794;2023-06-14T12:45:51;16.77;;;9.95;;
5349;SDS011;2697;42.144;24.794;2023-06-14T12:48:16;17.23;;;8.93;;
5349;SDS011;2697;42.144;24.794;2023-06-14T12:50:42;11.70;;;8.93;;
5349;SDS011;2697;42.144;24.794;2023-06-14T12:53:07;13.00;;;9.17;;
5349;SDS011;2697;42.144;24.794;2023-06-14T12:55:33;11.77;;;10.50;;
5349;SDS011;2697;42.144;24.794;2023-06-14T12:57:58;13.27;;;10.37;;
5349;SDS011;2697;42.144;24.794;2023-06-14T13:00:24;14.40;;;9.37;;
5349;SDS011;2697;42.144;24.794;2023-06-14T13:02:51;15.57;;;10.57;;
5349;SDS011;2697;42.144;24.794;2023-06-14T13:05:17;36.33;;;9.57;;
5349;SDS011;2697;42.144;24.794;2023-06-14T13:07:42;15.65;;;8.93;;
5349;SDS011;2697;42.144;24.794;2023-06-14T13:10:08;19.85;;;10.23;;
5349;SDS011;2697;42.144;24.794;2023-06-14T13:12:34;10.98;;;9.05;;
5349;SDS011;2697;42.144;24.794;2023-06-14T13:14:59;18.73;;;9.55;;
5349;SDS011;2697;42.144;24.794;2023-06-14T13:17:24;15.70;;;10.38;;
5349;SDS011;2697;42.144;24.794;2023-06-14T13:19:51;16.83;;;12.18;;
5349;SDS011;2697;42.144;24.794;2023-06-14T13:22:16;13.25;;;10.32;;
5349;SDS011;2697;42.144;24.794;2023-06-14T13:24:42;15.68;;;9.90;;
5349;SDS011;2697;42.144;24.794;2023-06-14T13:27:07;12.40;;;9.68;;
5349;SDS011;2697;42.144;24.794;2023-06-14T13:29:33;12.68;;;10.25;;
5349;SDS011;2697;42.144;24.794;2023-06-14T13:32:00;11.80;;;9.23;;
5349;SDS011;2697;42.144;24.794;2023-06-14T13:34:26;11.10;;;9.48;;
5349;SDS011;2697;42.144;24.794;2023-06-14T13:36:52;12.57;;;8.77;;
5349;SDS011;2697;42.144;24.794;2023-06-14T13:39:17;13.48;;;8.00;;
5349;SDS011;2697;42.144;24.794;2023-06-14T13:41:42;11.73;;;8.18;;
5349;SDS011;2697;42.144;24.794;2023-06-14T13:44:08;13.17;;;10.20;;
5349;SDS011;2697;42.144;24.794;2023-06-14T13:46:36;15.43;;;10.50;;
5349;SDS011;2697;42.144;24.794;2023-06-14T13:49:01;10.73;;;9.70;;
5349;SDS011;2697;42.144;24.794;2023-06-14T13:51:27;11.57;;;9.23;;
5349;SDS011;2697;42.144;24.794;2023-06-14T13:53:52;14.97;;;8.97;;
5349;SDS011;2697;42.144;24.794;2023-06-14T13:56:18;8.83;;;6.97;;
5349;SDS011;2697;42.144;24.794;2023-06-14T13:58:44;9.73;;;7.80;;
5349;SDS011;2697;42.144;24.794;2023-06-14T14:01:09;12.53;;;8.93;;
5349;SDS011;2697;42.144;24.794;2023-06-14T14:03:36;9.53;;;7.20;;
5349;SDS011;2697;42.144;24.794;2023-06-14T14:06:01;8.90;;;7.13;;
5349;SDS011;2697;42.144;24.794;2023-06-14T14:08:28;11.37;;;7.63;;
5349;SDS011;2697;42.144;24.794;2023-06-14T14:10:53;6.93;;;6.17;;
5349;SDS011;2697;42.144;24.794;2023-06-14T14:13:19;9.93;;;5.67;;
5349;SDS011;2697;42.144;24.794;2023-06-14T14:15:46;9.07;;;6.03;;
5349;SDS011;2697;42.144;24.794;2023-06-14T14:18:11;6.93;;;5.03;;
5349;SDS011;2697;42.144;24.794;2023-06-14T14:20:36;7.87;;;4.73;;
5349;SDS011;2697;42.144;24.794;2023-06-14T14:23:02;24.20;;;5.25;;
5349;SDS011;2697;42.144;24.794;2023-06-14T14:25:27;7.15;;;5.35;;
5349;SDS011;2697;42.144;24.794;2023-06-14T14:27:53;8.70;;;4.13;;
5349;SDS011;2697;42.144;24.794;2023-06-14T14:30:18;4.57;;;4.07;;
5349;SDS011;2697;42.144;24.794;2023-06-14T14:32:48;7.63;;;4.28;;
5349;SDS011;2697;42.144;24.794;2023-06-14T14:35:16;12.32;;;5.22;;
5349;SDS011;2697;42.144;24.794;2023-06-14T14:37:42;5.70;;;4.77;;
5349;SDS011;2697;42.144;24.794;2023-06-14T14:40:08;4.07;;;3.58;;
5349;SDS011;2697;42.144;24.794;2023-06-14T14:42:34;12.03;;;4.60;;
5349;SDS011;2697;42.144;24.794;2023-06-14T14:45:00;5.37;;;4.23;;
5349;SDS011;2697;42.144;24.794;2023-06-14T14:47:25;7.88;;;4.43;;
5349;SDS011;2697;42.144;24.794;2023-06-14T14:49:51;12.88;;;4.05;;
5349;SDS011;2697;42.144;24.794;2023-06-14T14:52:16;3.90;;;3.47;;
5349;SDS011;2697;42.144;24.794;2023-06-14T14:54:42;7.83;;;4.00;;
5349;SDS011;2697;42.144;24.794;2023-06-14T14:57:07;3.53;;;3.22;;
5349;SDS011;2697;42.144;24.794;2023-06-14T14:59:33;5.00;;;3.40;;
5349;SDS011;2697;42.144;24.794;2023-06-14T15:01:59;3.67;;;3.33;;
5349;SDS011;2697;42.144;24.794;2023-06-14T15:04:24;5.45;;;3.97;;
5349;SDS011;2697;42.144;24.794;2023-06-14T15:06:49;4.05;;;2.88;;
5349;SDS011;2697;42.144;24.794;2023-06-14T15:09:15;5.15;;;3.42;;
5349;SDS011;2697;42.144;24.794;2023-06-14T15:11:40;3.70;;;3.40;;